Time;durP1;ratioP1;P1;durP2;ratioP2;P2;SDS_P1;SDS_P2;PMS_P1;PMS_P2;Temp;Humidity;BMP_temperature;BMP_pressure;BME280_temperature;BME280_humidity;BME280_pressure;Samples;Min_cycle;Max_cycle;Signal;HPM_P1;HPM_P2
2022/04/23 08:24:37;;;;;;;19.90;16.92;;;;;;;15.80;68.13;100261.91;6429637;22;191335;-70
2022/04/23 08:27:09;;;;;;;19.73;17.65;;;;;;;16.00;71.19;100266.69;6363754;23;66064;-69
2022/04/23 08:32:30;;;;;;;19.88;17.98;;;;;;;15.99;68.45;100271.16;6369383;23;20441;-68
2022/04/23 08:35:05;;;;;;;20.00;18.00;;;;;;;16.24;69.62;100277.00;6366734;23;20010;-70
2022/04/23 08:37:36;;;;;;;18.52;16.83;;;;;;;16.35;68.13;100253.78;6370768;23;20017;-72
2022/04/23 08:40:10;;;;;;;19.52;17.63;;;;;;;16.60;66.54;100252.50;6394320;23;20352;-73
2022/04/23 08:42:41;;;;;;;21.58;19.38;;;;;;;16.47;64.35;100268.97;6397769;23;20059;-73
2022/04/23 08:45:13;;;;;;;20.13;18.13;;;;;;;16.44;65.05;100264.09;6374194;23;20005;-72
2022/04/23 08:47:45;;;;;;;21.05;17.67;;;;;;;16.54;65.79;100274.38;6392166;23;20010;-73
2022/04/23 08:50:22;;;;;;;21.02;18.92;;;;;;;16.61;65.28;100277.94;6370805;23;20060;-72
2022/04/23 08:52:54;;;;;;;20.42;18.40;;;;;;;16.46;63.65;100277.94;6372214;23;20010;-73
2022/04/23 08:55:26;;;;;;;19.40;17.70;;;;;;;16.62;64.15;100276.91;6370287;23;20006;-72
2022/04/23 08:57:57;;;;;;;21.48;19.40;;;;;;;16.61;63.69;100262.06;6372029;23;20016;-72
2022/04/23 09:00:29;;;;;;;21.48;19.48;;;;;;;16.77;63.70;100269.00;6371303;23;20010;-72
2022/04/23 09:03:00;;;;;;;21.92;19.90;;;;;;;16.85;63.37;100273.38;6371740;23;20056;-73
2022/04/23 09:05:32;;;;;;;22.45;18.85;;;;;;;17.07;62.69;100287.47;6371273;23;20009;-71
2022/04/23 09:08:05;;;;;;;22.38;20.25;;;;;;;16.98;61.85;100277.00;6372175;23;20389;-71
2022/04/23 09:10:47;;;;;;;21.02;18.92;;;;;;;17.17;62.56;100283.53;6369681;23;20089;-71
2022/04/23 09:13:25;;;;;;;22.55;20.17;;;;;;;17.15;61.10;100287.38;6372000;23;20013;-71
2022/04/23 09:24:46;;;;;;;23.38;21.27;;;;;;;17.32;60.95;100293.25;6371365;23;20014;-72
2022/04/23 09:27:18;;;;;;;24.38;21.98;;;;;;;17.05;60.85;100292.97;6370639;23;20061;-71
2022/04/23 09:30:00;;;;;;;24.60;22.40;;;;;;;17.19;60.99;100289.44;6368864;23;20426;-73
2022/04/23 09:32:32;;;;;;;24.02;21.60;;;;;;;17.06;61.52;100284.03;6372271;23;20016;-71
2022/04/23 09:35:09;;;;;;;23.00;20.85;;;;;;;17.04;60.97;100291.31;6371500;23;20060;-71
2022/04/23 09:40:30;;;;;;;24.58;22.27;;;;;;;17.51;60.27;100282.06;6403203;23;20017;-71
2022/04/23 09:43:05;;;;;;;24.02;21.83;;;;;;;17.72;58.75;100294.47;6402128;23;20005;-71
2022/04/23 09:45:42;;;;;;;24.40;21.88;;;;;;;17.72;59.23;100284.69;6404509;23;19998;-71
2022/04/23 09:48:16;;;;;;;23.63;21.52;;;;;;;17.91;58.43;100272.63;6403334;23;20009;-72
2022/04/23 09:50:48;;;;;;;26.05;23.55;;;;;;;18.10;57.84;100273.78;6402970;23;20341;-71
2022/04/23 09:53:20;;;;;;;25.15;22.85;;;;;;;18.06;57.97;100280.50;6402862;23;20006;-71
2022/04/23 09:55:53;;;;;;;24.60;22.50;;;;;;;17.92;58.08;100268.19;6400392;23;20009;-70
2022/04/23 09:58:31;;;;;;;25.13;22.70;;;;;;;17.87;59.00;100279.34;6401102;23;20011;-71
2022/04/23 10:01:02;;;;;;;22.85;20.83;;;;;;;17.97;59.18;100271.88;6401791;23;20012;-71
2022/04/23 10:03:34;;;;;;;24.08;21.95;;;;;;;17.96;57.95;100270.25;6401144;23;20425;-71
2022/04/23 10:06:08;;;;;;;25.50;23.27;;;;;;;18.01;57.55;100260.91;6401003;23;20425;-71
2022/04/23 10:08:45;;;;;;;25.10;23.00;;;;;;;18.16;57.80;100273.03;6402064;23;20017;-72
2022/04/23 10:11:28;;;;;;;25.02;21.83;;;;;;;18.13;57.51;100259.34;6400226;23;20005;-73
2022/04/23 10:14:08;;;;;;;23.83;21.60;;;;;;;18.28;57.98;100262.72;6400753;23;20010;-73
2022/04/23 10:16:40;;;;;;;24.23;22.02;;;;;;;18.24;56.54;100256.97;6400104;23;20067;-73
2022/04/23 10:19:11;;;;;;;25.25;22.95;;;;;;;18.30;56.62;100247.44;6399131;23;20009;-73
2022/04/23 10:21:59;;;;;;;23.87;21.60;;;;;;;18.38;55.71;100241.97;6402161;23;20041;-74
2022/04/23 10:24:45;;;;;;;22.67;20.55;;;;;;;18.37;56.11;100247.44;6399927;23;20009;-73
2022/04/23 10:27:18;;;;;;;23.60;21.50;;;;;;;18.43;56.06;100246.69;6401538;23;19998;-74
2022/04/23 10:29:50;;;;;;;25.38;23.08;;;;;;;18.37;56.21;100247.44;6404212;23;20343;-74
2022/04/23 10:32:22;;;;;;;25.00;22.65;;;;;;;18.39;55.20;100258.69;6403334;23;20009;-73
2022/04/23 10:34:53;;;;;;;23.17;21.07;;;;;;;18.41;54.85;100256.66;6401470;23;20532;-73
2022/04/23 10:37:27;;;;;;;23.33;21.08;;;;;;;18.55;55.22;100249.59;6399882;23;20041;-74
2022/04/23 10:39:59;;;;;;;25.33;22.95;;;;;;;18.60;54.37;100252.47;6372374;23;20013;-73
2022/04/23 10:42:32;;;;;;;24.57;22.17;;;;;;;18.56;53.79;100260.03;6371983;23;20009;-72
2022/04/23 10:45:04;;;;;;;;;;;;;;;19.06;53.50;100258.00;6372934;23;20242;-72
2022/04/23 10:47:36;;;;;;;23.25;21.05;;;;;;;18.77;54.09;100255.66;6371317;23;20351;-72
2022/04/23 10:50:15;;;;;;;23.98;21.70;;;;;;;18.91;53.18;100252.03;6372496;23;20005;-72
2022/04/23 10:52:50;;;;;;;25.63;23.23;;;;;;;18.83;53.55;100249.56;6371164;23;20428;-72
2022/04/23 10:55:22;;;;;;;23.67;21.42;;;;;;;18.90;53.00;100263.66;6369549;23;20061;-74
2022/04/23 10:57:54;;;;;;;24.13;22.02;;;;;;;18.73;52.33;100241.97;6372870;23;20041;-72
2022/04/23 11:00:30;;;;;;;23.38;21.27;;;;;;;18.85;52.83;100247.50;6372004;23;20094;-73
2022/04/23 11:03:08;;;;;;;25.55;23.25;;;;;;;18.97;52.29;100245.91;6372986;23;20442;-73
2022/04/23 11:14:50;;;;;;;23.75;21.55;;;;;;;19.03;52.28;100247.78;6372612;23;20018;-72
2022/04/23 11:17:23;;;;;;;22.80;20.73;;;;;;;19.09;52.64;100238.19;6373212;23;20034;-72
2022/04/23 11:19:55;;;;;;;22.83;20.63;;;;;;;19.22;51.59;100224.94;6372174;23;20545;-72
2022/04/23 11:22:27;;;;;;;27.58;21.20;;;;;;;19.27;51.50;100230.47;6370309;23;20006;-72
2022/04/23 11:24:58;;;;;;;24.50;21.90;;;;;;;19.43;50.98;100231.91;6373892;23;20006;-72
2022/04/23 11:27:37;;;;;;;22.55;20.45;;;;;;;19.67;50.60;100241.97;6374089;23;20006;-73
2022/04/23 11:30:09;;;;;;;20.98;18.98;;;;;;;19.94;49.67;100226.03;6375043;23;20112;-73
2022/04/23 11:32:40;;;;;;;22.70;20.08;;;;;;;20.12;50.07;100234.19;6373664;23;20464;-73
2022/04/23 11:35:11;;;;;;;22.70;20.60;;;;;;;20.11;49.24;100232.53;6374708;23;20010;-74
2022/04/23 11:37:43;;;;;;;21.13;19.30;;;;;;;19.97;49.20;100232.78;6374060;23;20018;-72
2022/04/23 11:40:20;;;;;;;21.23;19.33;;;;;;;19.94;48.63;100231.34;6372324;23;20043;-73
2022/04/23 11:42:51;;;;;;;22.45;20.33;;;;;;;19.95;49.31;100218.84;6374335;23;20002;-72
2022/04/23 11:45:23;;;;;;;21.33;19.43;;;;;;;20.10;48.23;100228.25;6371730;23;20032;-73
2022/04/23 11:47:55;;;;;;;21.80;19.70;;;;;;;20.12;48.04;100222.72;6373781;23;20012;-72
2022/04/23 11:50:28;;;;;;;21.90;19.73;;;;;;;20.21;47.62;100220.66;6373427;23;20344;-73
2022/04/23 11:53:05;;;;;;;22.23;20.15;;;;;;;20.21;48.36;100221.47;6374123;23;20089;-74
2022/04/23 11:55:36;;;;;;;19.92;17.95;;;;;;;20.37;46.82;100198.91;6373757;23;20048;-73
2022/04/23 11:58:08;;;;;;;19.93;18.03;;;;;;;20.62;46.86;100207.03;6374300;23;20450;-73
2022/04/23 12:00:39;;;;;;;20.30;18.50;;;;;;;20.48;47.28;100216.06;6373654;23;20010;-73
2022/04/23 12:03:11;;;;;;;21.17;18.97;;;;;;;20.34;47.07;100220.59;6373609;23;20012;-74
2022/04/23 12:05:42;;;;;;;22.93;20.57;;;;;;;19.87;47.11;100210.06;6373491;23;20051;-74
2022/04/23 12:08:21;;;;;;;19.87;18.13;;;;;;;20.15;48.44;100199.19;6373793;23;20477;-74
2022/04/23 12:10:52;;;;;;;22.98;20.67;;;;;;;20.25;48.65;100209.38;6374085;23;20071;-73
2022/04/23 12:13:24;;;;;;;19.57;17.77;;;;;;;20.59;47.83;100194.97;6370947;23;20010;-74
2022/04/23 12:15:55;;;;;;;21.30;19.23;;;;;;;20.72;45.61;100191.44;6372703;23;20056;-74
2022/04/23 12:18:27;;;;;;;22.27;19.23;;;;;;;20.71;45.86;100188.97;6371391;23;20441;-74
2022/04/23 12:21:07;;;;;;;19.97;17.83;;;;;;;20.86;45.90;100197.50;6372892;23;20336;-74
2022/04/23 12:23:40;;;;;;;20.60;18.70;;;;;;;20.82;45.70;100189.13;6373375;23;20018;-74
2022/04/23 12:26:13;;;;;;;22.33;18.00;;;;;;;20.70;44.59;100177.50;6374170;23;20008;-73
2022/04/23 12:42:51;;;;;;;20.75;18.35;;;;;;;20.73;44.39;100161.13;6374018;23;20013;-74
2022/04/23 12:45:22;;;;;;;19.63;17.90;;;;;;;20.92;44.36;100158.56;6374306;23;20374;-73
2022/04/23 12:48:04;;;;;;;21.57;19.27;;;;;;;20.86;44.31;100174.34;6374364;23;20009;-74
2022/04/23 12:50:36;;;;;;;19.30;17.50;;;;;;;20.72;44.61;100167.47;6373822;23;20018;-73
2022/04/23 12:53:07;;;;;;;20.00;18.00;;;;;;;20.56;43.92;100165.28;6373834;23;20143;-74
2022/04/23 12:55:49;;;;;;;19.60;17.83;;;;;;;20.71;44.42;100157.84;6373408;23;20041;-74
2022/04/23 12:58:21;;;;;;;18.33;16.73;;;;;;;20.49;43.74;100149.34;6373809;23;20016;-74
2022/04/23 13:00:52;;;;;;;19.67;17.63;;;;;;;20.48;43.70;100145.03;6373806;23;20441;-74
2022/04/23 13:03:34;;;;;;;18.40;16.60;;;;;;;20.53;45.63;100145.28;6373731;23;20006;-73
2022/04/23 13:08:54;;;;;;;19.10;17.40;;;;;;;20.33;44.93;100149.81;6372003;23;20333;-72
2022/04/23 13:08:58;;;;;;;19.65;17.75;;;;;;;20.22;44.43;100137.97;6372911;23;20014;-73
2022/04/23 13:11:32;;;;;;;18.95;17.00;;;;;;;20.17;44.12;100141.28;6347347;23;20017;-72
2022/04/23 13:14:05;;;;;;;19.30;17.42;;;;;;;20.10;45.51;100145.78;6373011;23;20432;-73
2022/04/23 13:16:36;;;;;;;19.08;17.20;;;;;;;19.96;44.96;100152.16;6373601;23;20010;-73
2022/04/23 13:19:07;;;;;;;19.73;17.53;;;;;;;19.98;45.10;100146.66;6373683;23;20005;-72
2022/04/23 13:21:39;;;;;;;17.60;15.83;;;;;;;19.92;45.32;100140.31;6373737;23;20378;-72
2022/04/23 13:24:10;;;;;;;18.17;16.27;;;;;;;20.05;44.47;100139.50;6370989;23;20014;-72
2022/04/23 13:26:41;;;;;;;18.10;16.10;;;;;;;20.22;45.21;100135.31;6373780;23;20006;-72
2022/04/23 13:29:13;;;;;;;19.17;15.90;;;;;;;20.15;43.67;100138.03;6372050;23;20001;-73
2022/04/23 13:31:44;;;;;;;17.17;15.37;;;;;;;20.30;44.13;100128.94;6371710;23;20010;-72
2022/04/23 13:34:15;;;;;;;17.43;14.53;;;;;;;20.64;43.89;100128.59;6373226;23;20357;-72
2022/04/23 13:36:46;;;;;;;16.43;14.53;;;;;;;20.74;42.80;100122.00;6374159;23;20006;-73
2022/04/23 13:39:18;;;;;;;14.63;13.00;;;;;;;20.59;42.24;100133.75;6373412;23;20029;-73
2022/04/23 13:41:49;;;;;;;14.27;12.97;;;;;;;20.62;41.95;100121.88;6370616;23;20013;-73
2022/04/23 13:44:22;;;;;;;14.13;11.63;;;;;;;20.81;40.86;100131.59;6371712;23;20014;-72
2022/04/23 13:46:54;;;;;;;;;;;;;;;21.41;41.12;100120.50;6373394;23;20001;-72
2022/04/23 13:49:25;;;;;;;13.52;12.25;;;;;;;21.16;40.48;100106.34;6373113;23;19905;-72
2022/04/23 13:51:57;;;;;;;19.67;12.63;;;;;;;21.20;39.44;100118.19;6372579;23;20012;-73
2022/04/23 13:54:28;;;;;;;13.50;11.40;;;;;;;21.05;39.45;100115.84;6372670;23;20434;-72
2022/04/23 13:57:00;;;;;;;12.70;11.33;;;;;;;21.19;39.63;100116.56;6373299;23;20002;-72
2022/04/23 13:59:36;;;;;;;12.20;11.07;;;;;;;21.48;40.98;100123.09;6372399;23;20415;-71
2022/04/23 14:10:37;;;;;;;10.73;9.63;;;;;;;21.53;38.68;100109.94;6372968;23;20096;-72
2022/04/23 14:13:08;;;;;;;15.53;13.87;;;;;;;21.29;40.59;100104.41;6372947;23;20456;-72
2022/04/23 14:15:39;;;;;;;16.17;14.73;;;;;;;21.23;40.72;100109.78;6372152;23;20333;-72
2022/04/23 14:18:11;;;;;;;16.43;14.73;;;;;;;21.23;40.56;100097.25;6372282;23;20006;-74
2022/04/23 14:20:42;;;;;;;18.23;16.30;;;;;;;21.05;41.24;100113.19;6373567;23;20259;-74
2022/04/23 14:23:14;;;;;;;20.53;16.63;;;;;;;21.05;41.04;100105.19;6373779;23;20006;-74
2022/04/23 14:25:46;;;;;;;18.30;14.90;;;;;;;21.04;41.09;100093.72;6373123;23;20460;-73
2022/04/23 14:28:18;;;;;;;15.18;13.57;;;;;;;21.11;41.40;100093.69;6372603;23;20006;-74
2022/04/23 14:30:50;;;;;;;11.60;10.50;;;;;;;21.25;39.65;100087.22;6372404;23;20012;-72
2022/04/23 14:33:21;;;;;;;11.27;8.93;;;;;;;21.02;36.65;100069.16;6373191;23;20504;-73
2022/04/23 14:35:53;;;;;;;8.90;7.80;;;;;;;21.42;37.02;100090.16;6372723;23;20089;-72
2022/04/23 14:38:24;;;;;;;9.50;8.57;;;;;;;21.26;37.46;100080.03;6366183;23;20104;-71
2022/04/23 14:40:56;;;;;;;7.90;7.07;;;;;;;21.43;37.75;100080.31;6365448;23;20085;-70
2022/04/23 14:43:28;;;;;;;9.30;8.40;;;;;;;21.44;37.34;100079.28;6371399;23;20009;-70
2022/04/23 14:45:59;;;;;;;11.20;8.13;;;;;;;21.50;37.42;100081.88;6346892;23;20009;-71
2022/04/23 14:48:30;;;;;;;12.87;10.53;;;;;;;21.60;39.26;100087.53;6371715;23;20242;-70
2022/04/23 14:53:52;;;;;;;11.88;10.73;;;;;;;21.17;38.31;100092.00;6373200;23;20018;-70
2022/04/23 14:56:23;;;;;;;15.37;10.73;;;;;;;21.22;39.16;100092.16;6373141;23;20010;-70
2022/04/23 14:58:55;;;;;;;11.63;9.33;;;;;;;21.05;37.54;100079.38;6374202;23;20085;-70
2022/04/23 15:01:27;;;;;;;10.88;8.95;;;;;;;21.03;37.60;100075.31;6375198;23;20010;-70
2022/04/23 15:04:00;;;;;;;9.00;8.10;;;;;;;21.27;38.90;100071.00;6372561;23;20008;-72
2022/04/23 15:06:31;;;;;;;12.55;10.85;;;;;;;21.25;38.28;100065.91;6375036;23;20492;-70
2022/04/23 15:09:04;;;;;;;14.37;12.87;;;;;;;21.29;38.19;100075.09;6375343;23;20044;-70
2022/04/23 15:11:35;;;;;;;14.05;12.75;;;;;;;21.25;38.62;100075.72;6374544;23;20381;-71
2022/04/23 15:14:06;;;;;;;15.20;13.43;;;;;;;21.31;38.89;100070.34;6374517;23;20001;-70
2022/04/23 15:16:38;;;;;;;17.90;14.60;;;;;;;21.43;38.64;100065.13;6374531;23;20378;-71
2022/04/23 15:19:09;;;;;;;15.37;13.77;;;;;;;21.25;37.85;100071.25;6373979;23;20038;-71
2022/04/23 15:21:40;;;;;;;14.57;11.73;;;;;;;21.24;38.49;100079.44;6374894;23;20005;-70
2022/04/23 15:24:13;;;;;;;11.60;9.70;;;;;;;21.06;38.33;100069.53;6348744;23;20082;-70
2022/04/23 15:26:44;;;;;;;12.45;10.38;;;;;;;21.11;39.30;100072.38;6374308;23;20488;-71
2022/04/23 15:29:15;;;;;;;17.03;11.30;;;;;;;21.01;37.67;100080.84;6373119;23;20006;-70
2022/04/23 15:31:47;;;;;;;14.23;11.67;;;;;;;20.93;37.91;100075.78;6374882;23;20057;-69
2022/04/23 15:34:18;;;;;;;11.73;10.63;;;;;;;20.85;38.33;100086.72;6371775;23;20441;-70
2022/04/23 15:36:49;;;;;;;14.70;13.17;;;;;;;20.89;38.85;100088.72;6373086;23;20033;-69
2022/04/23 15:39:21;;;;;;;16.97;15.27;;;;;;;20.80;39.30;100075.91;6371947;23;20073;-72
2022/04/23 15:41:52;;;;;;;18.37;16.47;;;;;;;20.90;39.96;100081.53;6373371;23;20010;-70
2022/04/23 15:44:23;;;;;;;23.80;17.17;;;;;;;20.90;39.97;100093.00;6372415;23;20010;-69
2022/04/23 15:46:55;;;;;;;18.10;16.33;;;;;;;20.76;40.16;100082.66;6374226;23;20113;-70
2022/04/23 15:49:26;;;;;;;18.13;16.33;;;;;;;20.72;40.01;100086.78;6372221;23;20029;-69
2022/04/23 15:51:57;;;;;;;18.70;16.83;;;;;;;20.43;40.69;100078.34;6373049;23;20366;-69
2022/04/23 15:54:29;;;;;;;20.23;16.37;;;;;;;20.40;40.90;100089.41;6372718;23;20373;-70
2022/04/23 15:57:00;;;;;;;19.33;17.37;;;;;;;20.29;40.83;100084.75;6374402;23;20084;-69
2022/04/23 15:59:31;;;;;;;18.67;16.67;;;;;;;20.31;40.66;100086.19;6374222;23;20006;-70
2022/04/23 16:02:03;;;;;;;17.53;15.73;;;;;;;20.24;40.29;100089.91;6374580;23;20034;-69
2022/04/23 16:04:35;;;;;;;17.77;15.87;;;;;;;20.18;41.30;100089.72;6373569;23;20012;-69
2022/04/23 16:07:06;;;;;;;18.07;14.93;;;;;;;20.17;41.56;100081.94;6374619;23;20438;-69
2022/04/23 16:09:39;;;;;;;17.67;15.97;;;;;;;20.11;41.25;100069.50;6373071;23;20141;-69
2022/04/23 16:12:11;;;;;;;18.00;15.20;;;;;;;20.18;41.17;100084.38;6374055;23;20005;-69
2022/04/23 16:14:42;;;;;;;15.50;14.00;;;;;;;20.23;40.35;100081.13;6373414;23;20370;-69
2022/04/23 16:17:13;;;;;;;17.10;14.70;;;;;;;20.25;40.59;100075.56;6374336;23;20076;-70
2022/04/23 16:19:44;;;;;;;16.93;15.23;;;;;;;20.22;40.58;100081.31;6373864;23;20010;-69
2022/04/23 16:22:17;;;;;;;15.87;14.17;;;;;;;20.22;41.02;100073.34;6373825;23;20496;-69
2022/04/23 16:24:48;;;;;;;17.10;15.30;;;;;;;20.08;41.12;100080.56;6373656;23;20492;-69
2022/04/23 16:27:19;;;;;;;18.20;15.37;;;;;;;19.97;41.35;100068.75;6373965;23;20006;-69
2022/04/23 16:29:50;;;;;;;15.90;14.40;;;;;;;19.96;41.63;100082.22;6373354;23;20306;-69
2022/04/23 16:32:22;;;;;;;13.63;12.33;;;;;;;19.95;40.41;100084.06;6374119;23;20408;-69
2022/04/23 16:34:53;;;;;;;16.00;13.37;;;;;;;19.75;40.49;100078.03;6374005;23;20433;-69
2022/04/23 16:48:44;;;;;;;16.70;15.02;;;;;;;19.40;42.06;100072.97;6373421;23;20093;-69
2022/04/23 16:51:16;;;;;;;16.97;15.17;;;;;;;19.52;40.91;100084.56;6374119;23;20080;-69
2022/04/23 16:53:47;;;;;;;15.37;13.50;;;;;;;19.47;41.99;100092.34;6373849;23;20013;-69
2022/04/23 16:56:19;;;;;;;15.17;13.67;;;;;;;19.33;41.64;100090.75;6373184;23;20021;-69
2022/04/23 16:58:50;;;;;;;14.67;13.27;;;;;;;19.32;41.91;100079.31;6372977;23;20073;-69
2022/04/23 17:01:22;;;;;;;14.90;12.23;;;;;;;19.38;41.97;100082.97;6373957;23;20025;-70
2022/04/23 17:03:53;;;;;;;16.23;13.18;;;;;;;19.29;41.61;100084.22;6373801;23;20041;-69
2022/04/23 17:06:25;;;;;;;17.05;13.75;;;;;;;19.31;42.52;100084.81;6372967;23;20492;-69
2022/04/23 17:08:56;;;;;;;15.30;13.77;;;;;;;19.35;42.24;100084.19;6347513;23;20406;-69
2022/04/23 17:11:28;;;;;;;16.33;14.63;;;;;;;19.30;42.00;100088.50;6373985;23;20460;-70
2022/04/23 17:13:59;;;;;;;16.23;13.97;;;;;;;19.15;42.29;100091.34;6372856;23;20059;-69
2022/04/23 17:16:30;;;;;;;15.73;14.13;;;;;;;19.07;42.50;100091.56;6373856;23;20010;-70
2022/04/23 17:19:01;;;;;;;15.13;13.63;;;;;;;18.92;42.72;100079.28;6373652;23;20198;-69
2022/04/23 17:21:33;;;;;;;15.10;13.57;;;;;;;18.80;43.29;100090.72;6373171;23;20080;-69
2022/04/23 17:24:05;;;;;;;16.10;14.50;;;;;;;18.79;43.39;100084.59;6373075;23;20417;-71
2022/04/23 17:26:36;;;;;;;15.27;13.02;;;;;;;18.85;43.23;100093.56;6373419;23;20043;-70
2022/04/23 17:29:08;;;;;;;16.00;12.53;;;;;;;18.72;42.75;100094.38;6373740;23;20031;-69
2022/04/23 17:31:39;;;;;;;16.27;13.48;;;;;;;18.65;43.80;100088.22;6372986;23;20013;-70
2022/04/23 17:34:11;;;;;;;16.77;13.10;;;;;;;18.60;43.49;100094.13;6372538;23;20041;-69
2022/04/23 17:36:43;;;;;;;14.80;12.75;;;;;;;18.46;43.97;100084.50;6373505;23;20002;-72
2022/04/23 17:39:14;;;;;;;14.33;12.40;;;;;;;18.42;44.36;100092.03;6373301;23;20480;-69
2022/04/23 17:41:47;;;;;;;14.27;11.87;;;;;;;18.51;44.86;100097.97;6373651;23;20002;-68
2022/04/23 17:44:19;;;;;;;12.95;11.65;;;;;;;18.37;44.80;100091.81;6372061;23;20429;-69
2022/04/23 17:46:51;;;;;;;11.43;9.63;;;;;;;18.30;44.60;100104.25;6372438;23;20002;-69
2022/04/23 17:49:22;;;;;;;11.53;10.27;;;;;;;18.27;44.37;100101.97;6373505;23;20069;-70
2022/04/23 17:51:53;;;;;;;12.35;11.05;;;;;;;18.18;44.29;100111.09;6373253;23;20081;-69
2022/04/23 17:54:26;;;;;;;12.50;10.73;;;;;;;18.18;44.56;100105.81;6373242;23;20014;-69
2022/04/23 17:56:58;;;;;;;12.88;10.02;;;;;;;18.15;44.52;100106.22;6372515;23;20006;-69
2022/04/23 17:59:30;;;;;;;11.52;10.23;;;;;;;18.05;43.67;100111.88;6347437;23;20380;-69
2022/04/23 18:07:41;;;;;;;13.20;11.80;;;;;;;17.98;45.89;100108.38;6373524;23;20349;-71
2022/04/23 18:10:49;;;;;;;13.35;11.45;;;;;;;17.95;46.09;100112.22;6373111;23;20109;-69
2022/04/23 18:13:05;;;;;;;14.02;12.65;;;;;;;17.86;45.87;100105.47;6373004;23;20094;-69
2022/04/23 18:15:36;;;;;;;13.75;12.15;;;;;;;17.78;46.35;100112.75;6372000;23;20009;-69
2022/04/23 18:18:07;;;;;;;15.77;12.67;;;;;;;17.71;47.24;100112.69;6373219;23;20006;-69
2022/04/23 18:20:39;;;;;;;13.30;11.93;;;;;;;17.71;46.96;100116.13;6372700;23;20031;-69
2022/04/23 18:23:11;;;;;;;14.18;11.65;;;;;;;17.65;47.20;100109.00;6372747;23;20013;-70
2022/04/23 18:25:43;;;;;;;14.63;13.10;;;;;;;17.45;46.85;100108.84;6373231;23;20002;-69
2022/04/23 18:28:14;;;;;;;14.18;12.38;;;;;;;17.39;47.64;100122.03;6372980;23;20010;-70
2022/04/23 18:30:45;;;;;;;14.65;12.25;;;;;;;17.35;47.68;100118.13;6372902;23;20009;-69
2022/04/23 18:33:16;;;;;;;14.75;13.23;;;;;;;17.28;47.90;100115.44;6373174;23;20493;-69
2022/04/23 18:35:48;;;;;;;15.10;12.15;;;;;;;17.16;48.13;100120.44;6347036;23;20009;-71
2022/04/23 18:38:19;;;;;;;21.02;13.10;;;;;;;17.10;47.77;100115.91;6372780;23;20437;-70
2022/04/23 18:40:50;;;;;;;15.57;12.00;;;;;;;17.02;48.50;100127.44;6372590;23;20010;-69
2022/04/23 18:43:22;;;;;;;13.75;12.40;;;;;;;16.92;48.81;100126.09;6373311;23;20084;-69
2022/04/23 18:45:53;;;;;;;15.67;11.30;;;;;;;16.85;49.14;100123.38;6372717;23;19997;-69
2022/04/23 18:48:28;;;;;;;13.05;11.18;;;;;;;16.89;49.26;100122.00;6373491;23;20558;-69
2022/04/23 18:51:03;;;;;;;12.82;11.60;;;;;;;16.75;49.26;100123.72;6372486;23;20024;-71
2022/04/23 18:53:35;;;;;;;13.75;12.35;;;;;;;16.67;49.39;100123.81;6372328;23;20005;-69
2022/04/23 18:56:07;;;;;;;12.90;11.60;;;;;;;16.69;49.34;100123.59;6372823;23;20492;-71
2022/04/23 18:58:38;;;;;;;12.23;11.02;;;;;;;16.63;49.67;100125.19;6372124;23;20081;-69
2022/04/23 19:01:09;;;;;;;12.20;11.00;;;;;;;16.63;50.00;100138.41;6372806;23;20013;-69
2022/04/23 19:03:41;;;;;;;12.98;11.20;;;;;;;16.54;49.91;100136.88;6372769;23;20100;-71
2022/04/23 19:06:13;;;;;;;12.77;11.43;;;;;;;16.49;50.08;100139.25;6372780;23;20002;-69
2022/04/23 19:08:44;;;;;;;13.27;11.98;;;;;;;16.36;50.47;100126.69;6372473;23;20018;-69
2022/04/23 19:11:15;;;;;;;13.10;11.60;;;;;;;16.39;50.40;100142.19;6372443;23;20006;-69
2022/04/23 19:13:47;;;;;;;14.65;11.50;;;;;;;16.39;50.43;100136.06;6373020;23;20002;-69
2022/04/23 19:16:20;;;;;;;13.20;11.43;;;;;;;16.38;50.55;100137.09;6372033;23;20017;-70
2022/04/23 19:18:52;;;;;;;13.88;12.48;;;;;;;16.32;50.68;100145.75;6372727;23;20006;-69
2022/04/23 19:29:56;;;;;;;13.45;11.93;;;;;;;16.01;52.15;100129.09;6372739;23;20044;-69
2022/04/23 19:32:27;;;;;;;12.60;11.40;;;;;;;16.03;52.31;100140.31;6372519;23;20010;-69
2022/04/23 19:34:59;;;;;;;12.90;11.70;;;;;;;15.97;52.46;100148.16;6372086;23;20609;-69
2022/04/23 19:37:30;;;;;;;15.55;11.98;;;;;;;15.95;52.41;100147.53;6372581;23;20073;-69
2022/04/23 19:40:02;;;;;;;12.88;11.65;;;;;;;15.93;51.88;100142.41;6403545;23;20453;-69
2022/04/23 19:42:33;;;;;;;14.63;11.68;;;;;;;15.92;51.70;100142.59;6402728;23;20010;-70
2022/04/23 19:45:08;;;;;;;12.98;11.48;;;;;;;15.79;51.84;100144.03;6404309;23;20678;-69
2022/04/23 19:47:39;;;;;;;12.43;11.13;;;;;;;15.69;52.24;100145.31;6405544;23;20337;-69
2022/04/23 19:50:10;;;;;;;13.27;11.88;;;;;;;15.63;52.51;100138.88;6404583;23;20005;-69
2022/04/23 19:52:41;;;;;;;12.32;11.07;;;;;;;15.58;51.84;100146.53;6405339;23;20036;-70
2022/04/23 19:55:14;;;;;;;11.48;10.27;;;;;;;15.63;52.26;100153.91;6378923;23;20017;-69
2022/04/23 19:57:45;;;;;;;11.02;9.93;;;;;;;15.54;51.58;100146.06;6404191;23;20005;-71
2022/04/23 20:00:17;;;;;;;10.90;9.63;;;;;;;15.52;50.58;100148.06;6404869;23;20055;-69
2022/04/23 20:02:48;;;;;;;10.82;9.73;;;;;;;15.54;50.59;100146.06;6405115;23;20008;-70
2022/04/23 20:05:20;;;;;;;10.23;9.25;;;;;;;15.59;50.29;100153.44;6404570;23;20037;-71
2022/04/23 20:07:51;;;;;;;9.68;8.80;;;;;;;15.61;50.39;100138.25;6404500;23;19997;-69
2022/04/23 20:10:22;;;;;;;10.45;9.45;;;;;;;15.69;49.85;100150.59;6404785;23;20013;-69
2022/04/23 20:12:54;;;;;;;10.23;8.43;;;;;;;15.61;50.03;100143.53;6405211;23;20020;-70
2022/04/23 20:15:25;;;;;;;9.25;8.32;;;;;;;15.65;49.40;100141.38;6403853;23;20024;-67
2022/04/23 20:17:57;;;;;;;9.30;8.35;;;;;;;15.63;49.27;100138.88;6404747;23;20461;-69
2022/04/23 20:20:28;;;;;;;8.73;7.80;;;;;;;15.61;48.81;100140.91;6404462;23;20016;-68
2022/04/23 20:23:00;;;;;;;9.05;7.88;;;;;;;15.61;47.84;100140.06;6404382;23;20025;-68
2022/04/23 20:25:32;;;;;;;9.48;7.22;;;;;;;15.62;47.66;100145.19;6405036;23;20016;-68
2022/04/23 20:28:04;;;;;;;9.77;7.45;;;;;;;15.67;46.35;100142.03;6402957;23;20005;-68
2022/04/23 20:30:35;;;;;;;7.43;6.28;;;;;;;15.67;46.79;100142.84;6404712;23;20005;-69
2022/04/23 20:33:07;;;;;;;7.07;6.38;;;;;;;15.71;45.98;100144.13;6399313;23;20028;-70
2022/04/23 20:38:28;;;;;;;6.38;5.78;;;;;;;15.56;46.06;100117.66;6384803;23;20022;-69
2022/04/23 20:41:00;;;;;;;6.75;6.05;;;;;;;15.71;45.05;100138.00;6365418;23;20085;-70
2022/04/23 20:43:32;;;;;;;8.93;6.80;;;;;;;15.75;45.21;100137.47;6368792;23;20326;-68
2022/04/23 20:46:03;;;;;;;7.07;6.18;;;;;;;15.74;44.46;100141.13;6370428;23;20022;-72
2022/04/23 20:48:34;;;;;;;7.40;6.20;;;;;;;15.78;44.13;100141.56;6371840;23;20010;-70
2022/04/23 20:51:06;;;;;;;8.13;5.82;;;;;;;15.71;44.11;100145.94;6374074;23;20005;-68
2022/04/23 20:53:38;;;;;;;6.47;5.78;;;;;;;15.67;44.35;100147.31;6373771;23;20013;-70
2022/04/23 20:56:10;;;;;;;9.30;5.47;;;;;;;15.73;43.26;100133.38;6347243;23;20036;-69
2022/04/23 20:58:42;;;;;;;6.28;5.60;;;;;;;15.66;43.82;100146.47;6371838;23;20128;-70
2022/04/23 21:01:14;;;;;;;7.22;5.38;;;;;;;15.68;43.25;100141.84;6373102;23;20033;-68
2022/04/23 21:03:47;;;;;;;5.68;5.07;;;;;;;15.68;43.16;100141.84;6372180;23;20041;-69
2022/04/23 21:06:19;;;;;;;;;;;;;;;16.14;43.42;100139.03;6369332;23;20374;-69
2022/04/23 21:08:50;;;;;;;7.25;5.00;;;;;;;15.68;43.75;100146.28;6371780;23;19976;-69
2022/04/23 21:11:22;;;;;;;7.82;4.93;;;;;;;15.66;43.81;100146.47;6371684;23;20167;-69
2022/04/23 21:13:53;;;;;;;7.38;5.13;;;;;;;15.62;42.78;100153.09;6372916;23;20369;-70
2022/04/23 21:16:24;;;;;;;7.18;4.80;;;;;;;15.61;43.02;100150.63;6373597;23;20570;-68